createdAt,value
2017-07-14T00:01:36.449Z,53.50
2017-07-14T00:04:02.863Z,53.50
2017-07-14T00:06:29.184Z,53.30
2017-07-14T00:08:55.505Z,53.30
2017-07-14T00:11:22.614Z,52.50
2017-07-14T00:13:48.942Z,52.50
2017-07-14T00:16:15.270Z,53.30
2017-07-14T00:18:41.652Z,53.80
2017-07-14T00:21:08.019Z,54.00
2017-07-14T00:23:34.563Z,54.10
2017-07-14T00:26:00.926Z,53.30
2017-07-14T00:28:27.305Z,53.00
2017-07-14T00:30:53.673Z,52.80
2017-07-14T00:33:19.999Z,52.60
2017-07-14T00:35:46.326Z,52.70
2017-07-14T00:38:12.690Z,52.40
2017-07-14T00:40:39.820Z,53.20
2017-07-14T00:43:06.264Z,53.20
2017-07-14T00:45:32.640Z,53.70
2017-07-14T00:47:58.987Z,54.40
2017-07-14T00:50:25.345Z,54.90
2017-07-14T00:52:51.700Z,55.60
2017-07-14T00:55:18.777Z,56.90
2017-07-14T00:57:45.143Z,56.90
2017-07-14T01:00:11.525Z,57.70
2017-07-14T01:02:37.841Z,57.50
2017-07-14T01:05:04.902Z,57.40
2017-07-14T01:07:31.291Z,57.30
2017-07-14T01:09:57.605Z,57.70
2017-07-14T01:12:23.963Z,57.70
2017-07-14T01:14:50.406Z,58.30
2017-07-14T01:17:16.731Z,58.10
2017-07-14T01:19:43.084Z,58.50
2017-07-14T01:22:10.190Z,58.60
2017-07-14T01:24:36.562Z,58.60
2017-07-14T01:27:03.617Z,59.10
2017-07-14T01:29:29.996Z,59.10
2017-07-14T01:31:56.333Z,58.70
2017-07-14T01:34:22.659Z,59.00
2017-07-14T01:36:49.040Z,59.00
2017-07-14T01:39:16.142Z,58.90
2017-07-14T01:41:42.580Z,58.90
2017-07-14T01:44:09.043Z,58.80
2017-07-14T01:46:36.141Z,58.30
2017-07-14T01:49:02.560Z,58.30
2017-07-14T01:51:28.935Z,58.30
2017-07-14T01:53:55.309Z,59.00
2017-07-14T01:56:21.723Z,58.80
2017-07-14T01:58:48.901Z,59.30
2017-07-14T02:01:15.352Z,59.20
2017-07-14T02:03:41.743Z,59.00
2017-07-14T02:06:08.852Z,59.10
2017-07-14T02:08:35.320Z,59.00
2017-07-14T02:11:02.457Z,58.40
2017-07-14T02:13:28.876Z,58.40
2017-07-14T02:15:55.299Z,58.60
2017-07-14T02:18:21.690Z,59.00
2017-07-14T02:20:48.085Z,59.60
2017-07-14T02:23:14.544Z,60.00
2017-07-14T02:25:41.648Z,60.20
2017-07-14T02:28:08.106Z,60.20
2017-07-14T02:30:34.772Z,59.60
2017-07-14T02:33:01.187Z,59.10
2017-07-14T02:35:28.317Z,59.70
2017-07-14T02:37:54.748Z,59.70
2017-07-14T02:40:21.189Z,60.10
2017-07-14T02:42:47.597Z,60.20
2017-07-14T02:45:13.967Z,60.20
2017-07-14T02:47:41.164Z,60.60
2017-07-14T02:50:07.567Z,60.60
2017-07-14T02:52:33.984Z,60.70
2017-07-14T02:55:01.152Z,61.70
2017-07-14T02:57:27.518Z,61.70
2017-07-14T02:59:53.908Z,61.90
2017-07-14T03:02:20.348Z,62.10
2017-07-14T03:04:46.823Z,62.30
2017-07-14T03:07:13.211Z,61.70
2017-07-14T03:09:40.361Z,62.20
2017-07-14T03:12:06.786Z,62.20
2017-07-14T03:14:33.904Z,62.70
2017-07-14T03:17:00.309Z,62.70
2017-07-14T03:19:26.744Z,62.70
2017-07-14T03:21:53.165Z,62.60
2017-07-14T03:24:19.522Z,62.30
2017-07-14T03:26:45.975Z,62.10
2017-07-14T03:29:12.342Z,62.40
2017-07-14T03:31:38.748Z,62.20
2017-07-14T03:34:05.203Z,62.10
2017-07-14T03:36:31.591Z,63.00
2017-07-14T03:38:58.057Z,61.90
2017-07-14T03:41:25.269Z,61.60
2017-07-14T03:43:51.624Z,61.60
2017-07-14T03:46:18.075Z,61.60
2017-07-14T03:48:44.532Z,62.10
2017-07-14T03:51:10.903Z,61.90
2017-07-14T03:53:37.295Z,62.00
2017-07-14T03:56:03.705Z,62.50
2017-07-14T03:58:30.820Z,62.30
2017-07-14T04:00:57.256Z,62.20
2017-07-14T04:03:23.631Z,62.30
2017-07-14T04:05:49.968Z,62.30
2017-07-14T04:08:16.326Z,62.30
2017-07-14T04:10:43.006Z,62.30
2017-07-14T04:13:09.378Z,62.50
2017-07-14T04:15:35.684Z,62.50
2017-07-14T04:18:02.792Z,61.90
2017-07-14T04:20:29.165Z,61.90
2017-07-14T04:22:56.320Z,61.90
2017-07-14T04:25:23.483Z,62.30
2017-07-14T04:27:49.861Z,62.30
2017-07-14T04:30:16.247Z,62.30
2017-07-14T04:32:42.624Z,62.50
2017-07-14T04:35:08.941Z,62.30
2017-07-14T04:37:35.361Z,62.10
2017-07-14T04:40:01.725Z,61.80
2017-07-14T04:42:28.046Z,61.30
2017-07-14T04:44:54.393Z,61.20
2017-07-14T04:47:20.790Z,61.60
2017-07-14T04:49:47.115Z,61.60
2017-07-14T04:52:13.483Z,62.20
2017-07-14T04:54:39.947Z,62.20
2017-07-14T04:57:07.045Z,62.00
2017-07-14T04:59:33.372Z,62.00
2017-07-14T05:01:59.808Z,61.90
2017-07-14T05:04:26.128Z,61.40
2017-07-14T05:06:52.454Z,61.70
2017-07-14T05:09:18.839Z,61.70
2017-07-14T05:11:45.904Z,62.50
2017-07-14T05:14:12.994Z,62.50
2017-07-14T05:16:39.439Z,62.40
2017-07-14T05:19:05.844Z,62.30
2017-07-14T05:21:32.160Z,62.50
2017-07-14T05:23:58.546Z,62.70
2017-07-14T05:26:25.053Z,62.90
2017-07-14T05:28:51.421Z,62.60
2017-07-14T05:31:17.762Z,62.90
2017-07-14T05:33:44.900Z,62.30
2017-07-14T05:36:11.245Z,62.30
2017-07-14T05:38:38.620Z,62.20
2017-07-14T05:41:04.950Z,62.20
2017-07-14T05:43:31.353Z,61.80
2017-07-14T05:45:57.973Z,62.00
2017-07-14T05:48:24.312Z,61.90
2017-07-14T05:50:50.702Z,62.00
2017-07-14T05:53:17.084Z,62.10
2017-07-14T05:55:43.396Z,61.40
2017-07-14T05:58:09.710Z,61.00
2017-07-14T06:00:36.093Z,61.10
2017-07-14T06:03:03.169Z,61.20
2017-07-14T06:05:29.519Z,61.10
2017-07-14T06:07:55.915Z,60.90
2017-07-14T06:10:22.976Z,61.60
2017-07-14T06:12:49.384Z,61.60
2017-07-14T06:15:16.481Z,62.60
2017-07-14T06:17:42.792Z,62.50
2017-07-14T06:20:09.100Z,62.20
2017-07-14T06:22:36.192Z,62.20
2017-07-14T06:25:02.569Z,62.10
2017-07-14T06:27:29.656Z,62.10
2017-07-14T06:29:57.947Z,61.40
2017-07-14T06:32:24.400Z,61.80
2017-07-14T06:34:50.749Z,62.00
2017-07-14T06:37:17.195Z,62.20
2017-07-14T06:39:44.321Z,61.30
2017-07-14T06:42:10.684Z,61.20
2017-07-14T06:44:37.798Z,60.80
2017-07-14T06:47:04.115Z,60.70
2017-07-14T06:49:30.453Z,61.20
2017-07-14T06:51:56.812Z,61.40
2017-07-14T06:54:23.153Z,61.20
2017-07-14T06:56:50.317Z,60.20
2017-07-14T06:59:16.660Z,60.20
2017-07-14T07:01:43.010Z,60.40
2017-07-14T07:04:09.392Z,61.90
2017-07-14T07:06:36.477Z,61.70
2017-07-14T07:09:02.918Z,61.00
2017-07-14T07:11:29.299Z,59.90
2017-07-14T07:13:55.625Z,60.00
2017-07-14T07:16:22.839Z,58.90
2017-07-14T07:18:49.215Z,58.90
2017-07-14T07:21:16.329Z,58.60
2017-07-14T07:23:42.729Z,58.60
2017-07-14T07:26:09.155Z,59.20
2017-07-14T07:28:35.458Z,58.70
2017-07-14T07:31:01.832Z,58.10
2017-07-14T07:33:28.330Z,57.60
2017-07-14T07:35:55.501Z,57.80
2017-07-14T07:38:21.869Z,57.80
2017-07-14T07:40:48.211Z,57.40
2017-07-14T07:43:14.589Z,57.50
2017-07-14T07:45:40.946Z,57.60
2017-07-14T07:48:13.545Z,57.70
2017-07-14T07:50:39.913Z,57.50
2017-07-14T07:53:06.995Z,57.50
2017-07-14T07:55:33.384Z,57.40
2017-07-14T07:57:59.700Z,57.40
2017-07-14T08:00:26.025Z,57.70
2017-07-14T08:02:58.510Z,56.80
2017-07-14T08:05:24.830Z,56.60
2017-07-14T08:07:51.196Z,56.30
2017-07-14T08:10:18.358Z,56.60
2017-07-14T08:12:45.472Z,57.40
2017-07-14T08:15:12.585Z,57.60
2017-07-14T08:17:39.027Z,57.50
2017-07-14T08:20:05.410Z,57.70
2017-07-14T08:22:32.475Z,56.10
2017-07-14T08:24:58.867Z,56.00
2017-07-14T08:27:25.184Z,55.90
2017-07-14T08:29:51.499Z,55.40
2017-07-14T08:32:17.850Z,55.40
2017-07-14T08:34:44.204Z,54.90
2017-07-14T08:37:10.652Z,55.10
2017-07-14T08:39:37.707Z,55.10
2017-07-14T08:42:04.825Z,55.10
2017-07-14T08:44:31.215Z,55.00
2017-07-14T08:46:57.582Z,55.20
2017-07-14T08:49:23.897Z,55.00
2017-07-14T08:51:50.294Z,55.20
2017-07-14T08:54:16.631Z,55.50
2017-07-14T08:56:42.957Z,55.00
2017-07-14T08:59:09.379Z,55.10
2017-07-14T09:01:36.459Z,55.40
2017-07-14T09:04:02.813Z,55.40
2017-07-14T09:06:29.214Z,55.20
2017-07-14T09:08:55.669Z,54.70
2017-07-14T09:11:22.054Z,54.90
2017-07-14T09:13:48.402Z,54.50
2017-07-14T09:16:14.784Z,55.00
2017-07-14T09:18:41.109Z,55.10
2017-07-14T09:21:07.425Z,54.30
2017-07-14T09:23:33.839Z,54.60
2017-07-14T09:26:00.203Z,54.50
2017-07-14T09:28:26.547Z,54.00
2017-07-14T09:30:53.252Z,53.90
2017-07-14T09:33:19.581Z,53.90
2017-07-14T09:35:45.953Z,54.90
2017-07-14T09:38:12.316Z,54.60
2017-07-14T09:40:38.687Z,53.80
2017-07-14T09:43:05.222Z,53.30
2017-07-14T09:45:31.557Z,53.50
2017-07-14T09:47:57.892Z,53.50
2017-07-14T09:50:24.301Z,53.70
2017-07-14T09:52:50.656Z,53.80
2017-07-14T09:55:18.015Z,54.30
2017-07-14T09:57:44.457Z,54.90
2017-07-14T10:00:10.852Z,55.20
2017-07-14T10:02:37.226Z,54.60
2017-07-14T10:05:03.645Z,54.40
2017-07-14T10:07:29.973Z,53.60
2017-07-14T10:09:56.351Z,53.70
2017-07-14T10:12:22.688Z,53.60
2017-07-14T10:14:49.020Z,52.90
2017-07-14T10:17:15.423Z,52.90
2017-07-14T10:19:42.533Z,53.10
2017-07-14T10:22:08.861Z,53.60
2017-07-14T10:24:35.601Z,53.40
2017-07-14T10:27:02.099Z,52.70
2017-07-14T10:29:28.771Z,52.80
2017-07-14T10:31:55.158Z,52.10
2017-07-14T10:34:22.227Z,52.30
2017-07-14T10:36:49.015Z,52.30
2017-07-14T10:39:15.463Z,52.60
2017-07-14T10:41:42.528Z,52.20
2017-07-14T10:44:09.543Z,52.10
2017-07-14T10:46:35.874Z,52.10
2017-07-14T10:49:02.209Z,52.10
2017-07-14T10:51:28.566Z,52.70
2017-07-14T10:53:55.674Z,51.90
2017-07-14T10:56:21.987Z,51.80
2017-07-14T10:58:48.369Z,51.00
2017-07-14T11:01:15.450Z,50.30
2017-07-14T11:03:41.812Z,50.30
2017-07-14T11:06:08.201Z,50.50
2017-07-14T11:08:34.587Z,52.20
2017-07-14T11:11:00.910Z,51.90
2017-07-14T11:13:27.264Z,51.80
2017-07-14T11:15:53.636Z,52.00
2017-07-14T11:18:20.679Z,51.90
2017-07-14T11:20:47.060Z,52.50
2017-07-14T11:23:13.444Z,53.10
2017-07-14T11:25:39.792Z,52.60
2017-07-14T11:28:06.206Z,52.90
2017-07-14T11:30:32.588Z,53.40
2017-07-14T11:32:58.977Z,52.10
2017-07-14T11:35:25.349Z,53.20
2017-07-14T11:37:51.719Z,52.00
2017-07-14T11:40:18.824Z,51.20
2017-07-14T11:42:45.133Z,51.20
2017-07-14T11:45:11.450Z,50.70
2017-07-14T11:47:37.812Z,50.30
2017-07-14T11:50:04.169Z,49.00
2017-07-14T11:52:30.475Z,48.50
2017-07-14T11:54:56.828Z,49.30
2017-07-14T11:57:23.205Z,50.00
2017-07-14T11:59:49.533Z,48.60
2017-07-14T12:02:15.909Z,47.70
2017-07-14T12:04:42.322Z,47.60
2017-07-14T12:07:08.628Z,48.20
2017-07-14T12:09:34.980Z,47.60
2017-07-14T12:12:01.355Z,48.20
2017-07-14T12:14:27.673Z,48.80
2017-07-14T12:16:54.036Z,50.30
2017-07-14T12:19:21.160Z,49.40
2017-07-14T12:21:47.489Z,49.40
2017-07-14T12:24:13.827Z,49.60
2017-07-14T12:26:40.180Z,50.70
2017-07-14T12:29:08.370Z,50.20
2017-07-14T12:31:34.740Z,50.20
2017-07-14T12:34:01.120Z,48.20
2017-07-14T12:36:28.183Z,48.70
2017-07-14T12:38:54.502Z,48.60
2017-07-14T12:41:20.853Z,48.20
2017-07-14T12:43:47.279Z,49.20
2017-07-14T12:46:13.616Z,47.50
2017-07-14T12:48:39.933Z,47.40
2017-07-14T12:51:06.337Z,48.40
2017-07-14T12:53:32.744Z,46.30
2017-07-14T12:55:59.110Z,47.00
2017-07-14T12:58:26.268Z,47.60
2017-07-14T13:00:52.636Z,47.60
2017-07-14T13:03:18.955Z,45.40
2017-07-14T13:05:45.329Z,46.00
2017-07-14T13:08:11.660Z,47.00
2017-07-14T13:10:38.023Z,47.00
2017-07-14T13:13:05.151Z,47.50
2017-07-14T13:15:31.508Z,47.50
2017-07-14T13:17:57.902Z,49.30
2017-07-14T13:20:24.321Z,48.90
2017-07-14T13:22:51.023Z,49.00
2017-07-14T13:25:17.338Z,52.50
2017-07-14T13:27:44.459Z,55.10
2017-07-14T13:30:10.779Z,55.10
2017-07-14T13:32:37.140Z,54.50
2017-07-14T13:35:04.260Z,56.80
2017-07-14T13:37:30.630Z,56.80
2017-07-14T13:39:57.685Z,55.60
2017-07-14T13:42:24.002Z,55.50
2017-07-14T13:44:51.098Z,54.20
2017-07-14T13:47:17.427Z,54.10
2017-07-14T13:49:43.813Z,54.00
2017-07-14T13:52:10.903Z,54.40
2017-07-14T13:54:37.217Z,54.30
2017-07-14T13:57:03.615Z,55.00
2017-07-14T13:59:29.969Z,54.30
2017-07-14T14:01:56.444Z,51.20
2017-07-14T14:04:22.864Z,51.00
2017-07-14T14:06:49.192Z,48.80
2017-07-14T14:09:15.566Z,48.00
2017-07-14T14:11:41.888Z,47.90
2017-07-14T14:14:08.269Z,48.20
2017-07-14T14:16:34.672Z,50.70
2017-07-14T14:19:01.733Z,50.30
2017-07-14T14:21:28.879Z,49.40
2017-07-14T14:23:55.960Z,49.20
2017-07-14T14:26:22.305Z,49.20
2017-07-14T14:28:48.673Z,48.90
2017-07-14T14:31:15.032Z,49.50
2017-07-14T14:33:41.360Z,49.80
2017-07-14T14:36:07.729Z,48.90
2017-07-14T14:38:34.063Z,49.60
2017-07-14T14:41:00.425Z,50.30
2017-07-14T14:43:26.755Z,52.20
2017-07-14T14:45:53.152Z,55.20
2017-07-14T14:48:19.517Z,58.00
2017-07-14T14:50:45.869Z,58.90
2017-07-14T14:53:12.981Z,59.60
2017-07-14T14:55:39.335Z,59.50
2017-07-14T14:58:12.844Z,59.20
2017-07-14T15:00:39.976Z,60.60
2017-07-14T15:03:06.303Z,60.50
2017-07-14T15:05:32.628Z,62.60
2017-07-14T15:07:58.988Z,63.90
2017-07-14T15:10:26.291Z,59.90
2017-07-14T15:12:52.684Z,59.90
2017-07-14T15:15:19.761Z,59.50
2017-07-14T15:17:46.160Z,59.40
2017-07-14T15:20:13.235Z,63.40
2017-07-14T15:22:39.568Z,63.30
2017-07-14T15:25:06.096Z,61.80
2017-07-14T15:27:32.467Z,63.30
2017-07-14T15:29:58.887Z,60.90
2017-07-14T15:32:25.262Z,60.80
2017-07-14T15:34:51.631Z,62.70
2017-07-14T15:37:17.976Z,62.70
2017-07-14T15:39:44.327Z,60.40
2017-07-14T15:42:10.653Z,60.20
2017-07-14T15:44:37.008Z,60.00
2017-07-14T15:47:03.336Z,60.10
2017-07-14T15:49:29.696Z,60.80
2017-07-14T15:51:56.073Z,59.60
2017-07-14T15:54:22.412Z,60.00
2017-07-14T15:56:48.848Z,59.90
2017-07-14T15:59:15.164Z,59.90
2017-07-14T16:01:41.565Z,59.50
2017-07-14T16:04:07.926Z,58.50
2017-07-14T16:06:34.311Z,57.10
2017-07-14T16:09:01.378Z,56.50
2017-07-14T16:11:27.729Z,57.00
2017-07-14T16:13:54.061Z,56.30
2017-07-14T16:16:20.395Z,54.40
2017-07-14T16:18:46.787Z,53.00
2017-07-14T16:21:13.886Z,52.20
2017-07-14T16:23:40.255Z,52.20
2017-07-14T16:26:07.348Z,52.20
2017-07-14T16:28:33.751Z,52.00
2017-07-14T16:31:00.816Z,50.50
2017-07-14T16:33:27.302Z,50.40
2017-07-14T16:35:53.914Z,50.10
2017-07-14T16:38:20.339Z,49.50
2017-07-14T16:40:46.684Z,48.40
2017-07-14T16:43:13.032Z,48.40
2017-07-14T16:45:39.495Z,46.80
2017-07-14T16:48:06.564Z,46.90
2017-07-14T16:50:32.889Z,46.90
2017-07-14T16:52:59.268Z,46.10
2017-07-14T16:55:25.880Z,47.00
2017-07-14T17:00:47.774Z,45.10
2017-07-14T17:03:14.185Z,45.10
2017-07-14T17:05:40.597Z,44.80
2017-07-14T17:08:07.715Z,44.60
2017-07-14T17:10:34.050Z,44.50
2017-07-14T17:13:00.421Z,42.90
2017-07-14T17:15:26.743Z,42.20
2017-07-14T17:17:53.187Z,42.40
2017-07-14T17:20:20.233Z,43.20
2017-07-14T17:22:46.857Z,42.60
2017-07-14T17:25:13.319Z,42.40
2017-07-14T17:27:39.688Z,43.30
2017-07-14T17:30:06.245Z,43.20
2017-07-14T17:32:33.346Z,43.70
2017-07-14T17:34:59.741Z,43.00
2017-07-14T17:37:26.862Z,43.40
2017-07-14T17:39:53.228Z,43.40
2017-07-14T17:42:19.567Z,43.30
2017-07-14T17:44:46.068Z,43.10
2017-07-14T17:47:13.156Z,44.20
2017-07-14T17:49:39.567Z,43.50
2017-07-14T17:52:06.690Z,43.30
2017-07-14T17:54:33.047Z,43.30
2017-07-14T17:57:00.116Z,43.70
2017-07-14T17:59:26.461Z,43.70
2017-07-14T18:01:52.784Z,42.90
2017-07-14T18:04:19.220Z,42.30
2017-07-14T18:06:45.539Z,42.00
2017-07-14T18:09:11.901Z,42.70
2017-07-14T18:11:38.271Z,43.00
2017-07-14T18:14:05.440Z,42.40
2017-07-14T18:16:31.820Z,42.30
2017-07-14T18:18:58.161Z,42.10
2017-07-14T18:21:24.478Z,42.20
2017-07-14T18:23:50.819Z,41.60
2017-07-14T18:26:17.151Z,42.30
2017-07-14T18:28:43.627Z,41.90
2017-07-14T18:31:09.945Z,41.40
2017-07-14T18:33:37.073Z,41.40
2017-07-14T18:36:03.421Z,41.30
2017-07-14T18:38:30.527Z,41.90
2017-07-14T18:40:56.922Z,41.90
2017-07-14T18:43:23.281Z,42.20
2017-07-14T18:45:49.683Z,42.20
2017-07-14T18:48:16.167Z,42.40
2017-07-14T18:50:42.499Z,42.20
2017-07-14T18:53:08.831Z,41.90
2017-07-14T18:55:35.180Z,42.50
2017-07-14T18:58:01.644Z,42.30
2017-07-14T19:00:27.999Z,42.40
2017-07-14T19:02:54.355Z,42.70
2017-07-14T19:05:20.691Z,42.00
2017-07-14T19:07:47.073Z,42.10
2017-07-14T19:10:13.423Z,42.50
2017-07-14T19:12:39.850Z,42.50
2017-07-14T19:15:06.260Z,42.20
2017-07-14T19:17:33.323Z,42.90
2017-07-14T19:19:59.711Z,42.80
2017-07-14T19:22:26.049Z,43.00
2017-07-14T19:24:52.539Z,43.30
2017-07-14T19:27:18.876Z,43.20
2017-07-14T19:29:45.225Z,43.30
2017-07-14T19:32:11.589Z,43.90
2017-07-14T19:34:38.738Z,44.00
2017-07-14T19:37:05.914Z,44.70
2017-07-14T19:39:32.244Z,44.10
2017-07-14T19:41:58.601Z,43.80
2017-07-14T19:44:24.957Z,43.90
2017-07-14T19:46:51.314Z,44.10
2017-07-14T19:49:18.425Z,45.20
2017-07-14T19:51:44.804Z,45.30
2017-07-14T19:54:12.024Z,46.00
2017-07-14T19:56:38.460Z,46.00
2017-07-14T19:59:07.886Z,46.20
2017-07-14T20:01:35.028Z,46.30
2017-07-14T20:04:02.151Z,46.40
2017-07-14T20:06:28.495Z,46.40
2017-07-14T20:08:54.962Z,46.10
2017-07-14T20:11:21.295Z,45.90
2017-07-14T20:13:47.659Z,46.10
2017-07-14T20:16:14.038Z,45.40
2017-07-14T20:18:42.507Z,46.00
2017-07-14T20:21:11.825Z,46.10
2017-07-14T20:23:39.240Z,46.60
2017-07-14T20:26:06.077Z,46.60
2017-07-14T20:28:32.641Z,46.40
2017-07-14T20:31:00.558Z,46.00
2017-07-14T20:33:27.428Z,46.40
2017-07-14T20:35:54.161Z,46.60
2017-07-14T20:38:20.588Z,46.50
2017-07-14T20:40:46.909Z,46.80
2017-07-14T20:43:15.785Z,46.50
2017-07-14T20:45:42.685Z,46.60
2017-07-14T20:48:11.183Z,46.50
2017-07-14T20:50:38.364Z,46.80
2017-07-14T20:53:04.825Z,46.80
2017-07-14T20:55:38.922Z,47.10
2017-07-14T20:58:06.203Z,46.60
2017-07-14T21:00:34.947Z,46.60
2017-07-14T21:03:01.618Z,47.00
2017-07-14T21:05:28.000Z,47.60
2017-07-14T21:07:55.392Z,47.70
2017-07-14T21:10:21.840Z,47.70
2017-07-14T21:12:48.175Z,47.50
2017-07-14T21:15:14.539Z,48.00
2017-07-14T21:17:42.408Z,53.80
2017-07-14T21:20:08.766Z,53.10
2017-07-14T21:22:35.138Z,54.00
2017-07-14T21:25:01.500Z,53.80
2017-07-14T21:27:27.830Z,54.30
2017-07-14T21:29:54.229Z,54.90
2017-07-14T21:32:20.632Z,56.70
2017-07-14T21:34:46.965Z,57.50
2017-07-14T21:37:13.348Z,57.80
2017-07-14T21:39:39.687Z,57.90
2017-07-14T21:42:06.022Z,58.70
2017-07-14T21:44:32.441Z,59.20
2017-07-14T21:46:58.904Z,59.60
2017-07-14T21:49:26.202Z,60.40
2017-07-14T21:51:52.528Z,60.30
2017-07-14T21:54:19.372Z,60.70
2017-07-14T21:56:46.235Z,60.90
2017-07-14T21:59:12.784Z,60.00
2017-07-14T22:01:39.219Z,59.70
2017-07-14T22:04:07.403Z,59.00
2017-07-14T22:06:33.757Z,59.30
2017-07-14T22:09:00.161Z,60.50
2017-07-14T22:11:26.617Z,60.30
2017-07-14T22:13:54.084Z,61.90
2017-07-14T22:16:22.394Z,61.90
2017-07-14T22:18:48.884Z,62.20
2017-07-14T22:21:16.131Z,62.90
2017-07-14T22:23:44.046Z,63.00
2017-07-14T22:26:10.686Z,63.00
2017-07-14T22:28:37.424Z,64.20
2017-07-14T22:31:03.805Z,63.50
2017-07-14T22:33:30.924Z,64.60
2017-07-14T22:35:57.254Z,64.60
2017-07-14T22:38:23.596Z,64.70
2017-07-14T22:40:49.926Z,64.50
2017-07-14T22:43:16.281Z,64.70
2017-07-14T22:45:43.336Z,65.00
2017-07-14T22:48:10.440Z,65.80
2017-07-14T22:50:36.839Z,65.80
2017-07-14T22:53:03.159Z,66.30
2017-07-14T22:55:29.712Z,66.10
2017-07-14T22:57:56.090Z,66.30
2017-07-14T23:00:22.512Z,66.00
2017-07-14T23:02:49.064Z,66.20
2017-07-14T23:05:15.644Z,66.40
2017-07-14T23:07:46.113Z,66.40
2017-07-14T23:10:12.542Z,67.00
2017-07-14T23:12:38.944Z,66.80
2017-07-14T23:15:05.489Z,67.50
2017-07-14T23:17:31.833Z,67.60
2017-07-14T23:19:58.230Z,67.60
2017-07-14T23:22:24.786Z,68.20
2017-07-14T23:24:51.106Z,68.30
2017-07-14T23:27:17.717Z,68.60
2017-07-14T23:29:44.855Z,69.60
2017-07-14T23:32:11.982Z,69.00
2017-07-14T23:34:38.354Z,69.00
2017-07-14T23:37:04.724Z,69.30
2017-07-14T23:39:31.050Z,69.30
2017-07-14T23:41:57.401Z,69.30
2017-07-14T23:44:23.731Z,69.40
2017-07-14T23:46:50.219Z,69.40
2017-07-14T23:49:16.577Z,69.00
2017-07-14T23:51:42.952Z,69.10
2017-07-14T23:54:09.329Z,69.40
2017-07-14T23:56:35.697Z,69.10
2017-07-14T23:59:02.164Z,68.90
